Time;durP1;ratioP1;P1;durP2;ratioP2;P2;SDS_P1;SDS_P2;PMS_P1;PMS_P2;Temp;Humidity;BMP_temperature;BMP_pressure;BME280_temperature;BME280_humidity;BME280_pressure;Samples;Min_cycle;Max_cycle;Signal;HPM_P1;HPM_P2
2021/12/16 00:07:15;;;;;;;22.70;11.15;;;;;;;;;;5021165;28;20135;-69
2021/12/16 00:09:01;;;;;;;27.83;11.70;;;;;;;;;;5006686;28;20103;-69
2021/12/16 00:33:19;;;;;;;28.45;11.95;;;;;;;;;;5024549;28;20129;-69
2021/12/16 00:35:47;;;;;;;23.25;12.30;;;;;;;;;;5024555;28;20053;-69
2021/12/16 00:38:13;;;;;;;24.25;12.80;;;;;;;;;;5023712;28;20129;-69
2021/12/16 00:40:41;;;;;;;29.15;13.65;;;;;;;;;;5023360;28;20042;-69
2021/12/16 00:43:37;;;;;;;28.77;13.10;;;;;;;;;;5023978;28;20117;-69
2021/12/16 00:54:10;;;;;;;28.42;14.25;;;;;;;;;;5024003;28;20044;-69
2021/12/16 00:56:38;;;;;;;28.13;14.32;;;;;;;;;;5022759;28;20049;-69
2021/12/16 00:59:08;;;;;;;30.30;15.15;;;;;;;;;;5022586;28;20096;-69
2021/12/16 01:07:45;;;;;;;30.50;15.48;;;;;;;;;;5022993;28;20129;-69
2021/12/16 01:33:33;;;;;;;35.00;15.02;;;;;;;;;;5004953;28;20060;-69
2021/12/16 01:35:20;;;;;;;29.05;16.17;;;;;;;;;;5025098;28;20056;-69
2021/12/16 01:51:24;;;;;;;29.30;16.45;;;;;;;;;;5023612;28;20104;-69
2021/12/16 01:54:28;;;;;;;41.88;17.42;;;;;;;;;;5022890;28;20046;-69
2021/12/16 01:56:57;;;;;;;32.75;17.00;;;;;;;;;;5022406;28;20060;-69
2021/12/16 01:59:26;;;;;;;32.80;16.90;;;;;;;;;;5021987;28;20091;-69
2021/12/16 02:02:00;;;;;;;34.13;17.23;;;;;;;;;;5022073;28;20049;-69
2021/12/16 02:04:39;;;;;;;36.00;18.17;;;;;;;;;;5003791;28;20412;-69
2021/12/16 02:07:20;;;;;;;32.50;16.33;;;;;;;;;;5020755;28;20077;-69
2021/12/16 02:09:47;;;;;;;32.67;17.20;;;;;;;;;;5021694;28;20040;-69
2021/12/16 02:12:51;;;;;;;32.55;16.88;;;;;;;;;;5020592;28;20048;-69
2021/12/16 02:36:54;;;;;;;32.22;17.88;;;;;;;;;;5019056;28;20473;-69
2021/12/16 02:39:38;;;;;;;36.53;17.40;;;;;;;;;;5019261;28;20044;-69
2021/12/16 02:42:13;;;;;;;34.78;18.15;;;;;;;;;;5019597;28;20077;-69
2021/12/16 02:48:28;;;;;;;38.03;17.52;;;;;;;;;;5019675;28;20049;-69
2021/12/16 02:50:10;;;;;;;38.22;18.52;;;;;;;;;;5019754;28;20056;-69
2021/12/16 02:52:37;;;;;;;36.63;18.13;;;;;;;;;;5020004;28;20048;-69
2021/12/16 02:55:04;;;;;;;40.78;19.13;;;;;;;;;;5020537;28;20041;-69
2021/12/16 02:57:35;;;;;;;37.20;19.63;;;;;;;;;;5020131;28;20042;-69
2021/12/16 03:00:01;;;;;;;40.80;18.55;;;;;;;;;;5019009;28;20056;-69
2021/12/16 03:02:28;;;;;;;41.92;19.70;;;;;;;;;;5002078;28;20052;-69
2021/12/16 03:04:55;;;;;;;41.15;19.52;;;;;;;;;;5019154;28;20053;-69
2021/12/16 03:07:21;;;;;;;39.95;18.35;;;;;;;;;;5001616;28;20084;-69
2021/12/16 03:10:19;;;;;;;36.90;19.10;;;;;;;;;;5019434;28;20045;-69
2021/12/16 03:13:02;;;;;;;39.65;19.88;;;;;;;;;;5018879;28;20143;-69
2021/12/16 03:15:52;;;;;;;40.00;18.67;;;;;;;;;;5019765;28;20053;-69
2021/12/16 03:20:58;;;;;;;36.85;18.42;;;;;;;;;;5021296;28;20052;-69
2021/12/16 03:23:54;;;;;;;40.00;18.50;;;;;;;;;;5020005;28;20045;-69
2021/12/16 03:37:18;;;;;;;34.90;19.05;;;;;;;;;;5018411;28;20057;-69
2021/12/16 03:39:48;;;;;;;40.80;18.17;;;;;;;;;;5018016;28;20046;-69
2021/12/16 03:42:16;;;;;;;34.55;18.02;;;;;;;;;;5017615;28;20048;-69
2021/12/16 03:44:57;;;;;;;36.63;19.42;;;;;;;;;;5018263;28;20046;-69
2021/12/16 03:47:28;;;;;;;40.28;19.15;;;;;;;;;;5018697;28;20038;-69
2021/12/16 03:49:54;;;;;;;35.25;18.33;;;;;;;;;;5001829;28;20052;-69
2021/12/16 03:52:20;;;;;;;38.03;18.75;;;;;;;;;;5019260;28;20038;-69
2021/12/16 03:54:49;;;;;;;36.58;17.77;;;;;;;;;;5020087;28;20049;-69
2021/12/16 03:57:17;;;;;;;39.78;18.67;;;;;;;;;;5019417;28;20101;-69
2021/12/16 03:59:43;;;;;;;36.95;18.27;;;;;;;;;;5019039;28;20049;-69
2021/12/16 04:02:11;;;;;;;41.75;19.55;;;;;;;;;;5021070;28;20037;-69
2021/12/16 04:04:38;;;;;;;42.75;20.15;;;;;;;;;;5005410;28;20549;-69
2021/12/16 04:07:05;;;;;;;43.70;19.60;;;;;;;;;;5022341;28;20069;-69
2021/12/16 04:09:32;;;;;;;34.75;18.13;;;;;;;;;;5022243;28;20489;-69
2021/12/16 04:12:08;;;;;;;37.30;17.90;;;;;;;;;;5022215;28;20384;-69
2021/12/16 04:14:35;;;;;;;34.85;18.95;;;;;;;;;;5022230;28;20068;-69
2021/12/16 04:17:03;;;;;;;32.72;18.98;;;;;;;;;;5022477;28;20038;-69
2021/12/16 04:19:30;;;;;;;38.97;19.65;;;;;;;;;;5023336;28;20128;-69
2021/12/16 04:22:11;;;;;;;35.08;17.85;;;;;;;;;;5023897;28;20380;-69
2021/12/16 04:24:37;;;;;;;40.28;18.80;;;;;;;;;;5023124;28;20088;-69
2021/12/16 04:27:05;;;;;;;35.72;19.45;;;;;;;;;;5022401;28;20037;-69
2021/12/16 04:29:31;;;;;;;36.63;19.38;;;;;;;;;;5023370;28;20064;-69
2021/12/16 04:31:57;;;;;;;38.83;19.65;;;;;;;;;;5023078;28;20046;-69
2021/12/16 04:34:24;;;;;;;38.72;19.80;;;;;;;;;;5005366;28;20052;-69
2021/12/16 04:36:50;;;;;;;40.35;19.95;;;;;;;;;;5022892;28;20061;-69
2021/12/16 04:39:18;;;;;;;46.10;20.77;;;;;;;;;;5022483;28;20038;-69
2021/12/16 04:41:44;;;;;;;37.45;19.85;;;;;;;;;;5022194;28;20087;-69
2021/12/16 04:44:11;;;;;;;36.92;19.10;;;;;;;;;;5022340;28;20045;-69
2021/12/16 04:46:37;;;;;;;42.50;19.13;;;;;;;;;;5021971;28;20044;-69
2021/12/16 04:49:04;;;;;;;34.67;19.50;;;;;;;;;;5022530;28;20405;-69
2021/12/16 04:51:32;;;;;;;41.72;19.33;;;;;;;;;;5021922;28;20052;-69
2021/12/16 04:53:58;;;;;;;34.72;19.10;;;;;;;;;;5022372;28;20616;-69
2021/12/16 04:56:24;;;;;;;40.28;21.38;;;;;;;;;;5021561;28;20069;-69
2021/12/16 04:58:53;;;;;;;42.33;19.90;;;;;;;;;;5021253;28;20041;-69
2021/12/16 05:01:19;;;;;;;42.78;20.08;;;;;;;;;;5021975;28;20122;-69
2021/12/16 05:03:45;;;;;;;44.72;21.13;;;;;;;;;;5020965;28;20083;-69
2021/12/16 05:06:12;;;;;;;40.78;19.50;;;;;;;;;;5020457;28;20093;-69
2021/12/16 05:08:40;;;;;;;42.28;20.48;;;;;;;;;;5022040;28;20499;-69
2021/12/16 05:11:07;;;;;;;41.67;20.42;;;;;;;;;;5020715;28;20052;-69
2021/12/16 05:13:34;;;;;;;44.72;21.42;;;;;;;;;;5019148;28;20049;-69
2021/12/16 05:16:02;;;;;;;44.50;20.85;;;;;;;;;;5022072;28;20052;-69
2021/12/16 05:18:34;;;;;;;40.55;18.42;;;;;;;;;;5022175;28;20053;-69
2021/12/16 05:21:01;;;;;;;43.35;20.30;;;;;;;;;;5022305;28;20050;-69
2021/12/16 05:28:41;;;;;;;35.08;18.20;;;;;;;;;;5020938;28;20408;-69
2021/12/16 05:31:07;;;;;;;35.35;19.50;;;;;;;;;;5021494;28;20068;-69
2021/12/16 05:33:33;;;;;;;37.10;19.15;;;;;;;;;;5021477;28;20044;-69
2021/12/16 05:36:00;;;;;;;40.65;19.48;;;;;;;;;;5020556;28;20046;-69
2021/12/16 05:38:27;;;;;;;38.88;18.38;;;;;;;;;;5020648;28;20046;-69
2021/12/16 05:40:54;;;;;;;42.85;20.08;;;;;;;;;;5020875;28;20449;-69
2021/12/16 05:43:23;;;;;;;35.25;18.67;;;;;;;;;;5021277;28;20045;-69
2021/12/16 05:45:49;;;;;;;42.05;18.77;;;;;;;;;;5021614;28;20042;-69
2021/12/16 05:48:17;;;;;;;37.50;19.50;;;;;;;;;;5022018;28;20038;-69
2021/12/16 05:50:45;;;;;;;40.22;19.90;;;;;;;;;;5021806;28;20044;-69
2021/12/16 05:53:11;;;;;;;38.08;19.85;;;;;;;;;;5021842;28;20700;-69
2021/12/16 05:55:37;;;;;;;36.92;19.02;;;;;;;;;;5022107;28;20136;-69
2021/12/16 05:58:06;;;;;;;39.22;19.02;;;;;;;;;;5021702;28;20037;-69
2021/12/16 06:00:34;;;;;;;39.65;19.95;;;;;;;;;;5022320;28;20089;-69
2021/12/16 06:03:01;;;;;;;34.05;20.02;;;;;;;;;;5021428;28;20037;-69
2021/12/16 06:05:27;;;;;;;36.03;18.88;;;;;;;;;;5020492;28;20346;-69
2021/12/16 06:07:54;;;;;;;39.15;17.77;;;;;;;;;;5021656;28;20040;-69
2021/12/16 06:13:06;;;;;;;37.33;19.55;;;;;;;;;;5024641;28;20056;-70
2021/12/16 06:15:46;;;;;;;41.72;19.98;;;;;;;;;;5025368;28;20045;-70
2021/12/16 06:29:12;;;;;;;34.30;18.02;;;;;;;;;;5025721;28;20065;-70
2021/12/16 06:31:38;;;;;;;40.92;19.10;;;;;;;;;;5009167;28;20057;-70
2021/12/16 06:34:05;;;;;;;39.13;20.15;;;;;;;;;;5027137;28;20050;-70
2021/12/16 06:36:31;;;;;;;35.13;20.02;;;;;;;;;;4991926;28;20046;-70
2021/12/16 06:38:59;;;;;;;40.97;20.05;;;;;;;;;;5008405;28;20043;-70
2021/12/16 06:41:34;;;;;;;38.95;20.48;;;;;;;;;;5024249;28;20053;-70
2021/12/16 06:44:02;;;;;;;37.85;19.77;;;;;;;;;;5024282;28;20052;-70
2021/12/16 06:46:33;;;;;;;40.33;18.67;;;;;;;;;;5020523;28;20042;-69
2021/12/16 06:49:01;;;;;;;36.22;20.50;;;;;;;;;;5020007;28;20078;-69
2021/12/16 06:51:40;;;;;;;41.50;20.98;;;;;;;;;;5021957;28;20041;-69
2021/12/16 06:54:11;;;;;;;45.10;21.50;;;;;;;;;;5020329;28;20054;-70
2021/12/16 06:56:55;;;;;;;46.63;21.55;;;;;;;;;;5021826;28;20089;-70
2021/12/16 06:59:27;;;;;;;42.83;21.45;;;;;;;;;;5003908;28;20061;-70
2021/12/16 07:04:47;;;;;;;41.90;21.45;;;;;;;;;;5004037;28;20037;-70
2021/12/16 07:07:14;;;;;;;46.80;22.20;;;;;;;;;;5022273;28;20042;-70
2021/12/16 07:09:40;;;;;;;43.00;22.88;;;;;;;;;;5023052;28;20121;-70
2021/12/16 07:12:09;;;;;;;45.95;23.08;;;;;;;;;;5002752;28;20129;-70
2021/12/16 07:14:38;;;;;;;50.47;24.38;;;;;;;;;;5022721;28;20038;-70
2021/12/16 07:17:09;;;;;;;50.35;23.90;;;;;;;;;;5004032;28;20104;-70
2021/12/16 07:19:35;;;;;;;47.72;21.90;;;;;;;;;;5021695;28;20068;-70
2021/12/16 07:22:02;;;;;;;53.80;23.13;;;;;;;;;;5015397;28;20045;-68
2021/12/16 07:24:29;;;;;;;48.55;22.45;;;;;;;;;;5017867;28;20114;-68
2021/12/16 07:26:55;;;;;;;54.92;24.10;;;;;;;;;;5013961;28;20049;-68
2021/12/16 07:29:21;;;;;;;51.92;22.67;;;;;;;;;;5015329;28;20070;-68
2021/12/16 07:31:47;;;;;;;49.38;21.65;;;;;;;;;;4996794;28;20057;-67
2021/12/16 07:34:13;;;;;;;54.65;22.85;;;;;;;;;;5011378;28;20046;-68
2021/12/16 07:36:41;;;;;;;46.75;22.27;;;;;;;;;;5006210;28;20120;-68
2021/12/16 07:39:08;;;;;;;44.72;22.15;;;;;;;;;;5011791;28;20062;-69
2021/12/16 07:41:34;;;;;;;52.92;22.55;;;;;;;;;;5008385;28;20825;-67
2021/12/16 07:44:10;;;;;;;42.22;22.42;;;;;;;;;;5011057;28;20088;-68
2021/12/16 07:46:37;;;;;;;45.25;21.85;;;;;;;;;;5010239;28;20030;-68
2021/12/16 07:49:05;;;;;;;42.28;22.27;;;;;;;;;;5012095;28;20037;-67
2021/12/16 07:51:31;;;;;;;44.97;22.13;;;;;;;;;;5011840;28;20061;-68
2021/12/16 07:53:57;;;;;;;48.95;23.08;;;;;;;;;;5011791;28;20034;-66
2021/12/16 07:56:25;;;;;;;49.42;21.25;;;;;;;;;;5012412;28;20127;-66
2021/12/16 07:58:51;;;;;;;44.08;22.42;;;;;;;;;;5011746;28;20512;-66
2021/12/16 08:01:17;;;;;;;47.00;22.42;;;;;;;;;;5011705;28;20062;-66
2021/12/16 08:03:43;;;;;;;48.53;23.35;;;;;;;;;;5010037;28;20046;-66
2021/12/16 08:06:18;;;;;;;49.85;24.05;;;;;;;;;;5011555;28;20512;-66
2021/12/16 08:08:44;;;;;;;46.88;22.40;;;;;;;;;;5010757;28;20622;-67
2021/12/16 08:11:10;;;;;;;45.40;22.58;;;;;;;;;;5009998;28;20392;-67
2021/12/16 08:13:36;;;;;;;57.13;23.85;;;;;;;;;;5011284;28;20042;-67
2021/12/16 08:16:03;;;;;;;43.85;22.10;;;;;;;;;;5011100;28;20137;-67
2021/12/16 08:18:29;;;;;;;50.88;23.85;;;;;;;;;;5009755;28;20037;-68
2021/12/16 08:20:55;;;;;;;50.05;24.20;;;;;;;;;;5007988;28;20037;-68
2021/12/16 08:23:22;;;;;;;48.80;22.67;;;;;;;;;;5009489;28;20084;-69
2021/12/16 08:25:48;;;;;;;48.00;23.15;;;;;;;;;;5009191;28;20092;-69
2021/12/16 08:28:15;;;;;;;63.78;23.92;;;;;;;;;;4992312;28;20070;-67
2021/12/16 08:30:42;;;;;;;55.30;23.75;;;;;;;;;;5008840;28;20125;-69
2021/12/16 08:33:11;;;;;;;52.08;22.02;;;;;;;;;;5009615;28;20052;-68
2021/12/16 08:35:40;;;;;;;64.78;21.05;;;;;;;;;;4992159;28;20056;-66
2021/12/16 08:38:08;;;;;;;121.80;23.33;;;;;;;;;;5008678;28;20045;-68
2021/12/16 08:40:35;;;;;;;100.45;23.52;;;;;;;;;;5008553;28;20116;-68
2021/12/16 08:43:01;;;;;;;58.42;20.77;;;;;;;;;;5009640;28;20045;-66
2021/12/16 08:45:29;;;;;;;75.00;22.10;;;;;;;;;;5002358;28;20045;-67
2021/12/16 08:47:56;;;;;;;58.85;22.30;;;;;;;;;;5009892;28;20038;-66
2021/12/16 08:50:25;;;;;;;59.10;21.25;;;;;;;;;;5013453;28;20072;-67
2021/12/16 08:52:51;;;;;;;60.83;20.30;;;;;;;;;;5012579;28;20050;-68
2021/12/16 08:55:18;;;;;;;78.18;21.73;;;;;;;;;;5012810;28;20558;-69
2021/12/16 08:57:44;;;;;;;59.38;21.02;;;;;;;;;;5012908;28;20045;-67
2021/12/16 09:00:13;;;;;;;48.42;19.88;;;;;;;;;;5013530;28;20038;-68
2021/12/16 09:02:39;;;;;;;69.85;21.48;;;;;;;;;;5011556;28;20038;-68
2021/12/16 09:05:06;;;;;;;38.17;19.48;;;;;;;;;;5012439;28;20041;-68
2021/12/16 09:07:32;;;;;;;58.38;20.27;;;;;;;;;;5013551;28;20045;-68
2021/12/16 09:09:58;;;;;;;49.03;18.77;;;;;;;;;;5012471;28;20040;-67
2021/12/16 09:12:49;;;;;;;47.38;18.48;;;;;;;;;;5012563;28;20126;-69
2021/12/16 09:15:13;;;;;;;44.80;19.27;;;;;;;;;;4993826;28;20053;-67
2021/12/16 09:17:39;;;;;;;38.30;19.70;;;;;;;;;;5012483;28;21148;-69
2021/12/16 09:20:06;;;;;;;35.88;18.42;;;;;;;;;;5013341;28;20046;-68
2021/12/16 09:22:32;;;;;;;40.95;19.05;;;;;;;;;;5013053;28;20044;-67
2021/12/16 09:24:58;;;;;;;36.25;19.50;;;;;;;;;;5012552;28;20126;-67
2021/12/16 09:27:27;;;;;;;38.72;19.48;;;;;;;;;;5013171;28;20613;-67
2021/12/16 09:29:53;;;;;;;39.25;18.33;;;;;;;;;;5012650;28;20401;-67
2021/12/16 09:32:19;;;;;;;41.65;19.17;;;;;;;;;;5011595;28;20099;-67
2021/12/16 09:34:46;;;;;;;33.65;17.38;;;;;;;;;;5012787;28;20049;-68
2021/12/16 09:37:12;;;;;;;31.50;18.08;;;;;;;;;;5012912;28;20049;-68
2021/12/16 09:39:39;;;;;;;34.17;18.25;;;;;;;;;;5012203;28;20389;-67
2021/12/16 09:42:07;;;;;;;35.47;17.60;;;;;;;;;;5012654;28;20100;-67
2021/12/16 09:44:36;;;;;;;36.03;17.73;;;;;;;;;;4995024;28;20060;-67
2021/12/16 09:47:05;;;;;;;34.72;17.60;;;;;;;;;;4994596;28;20054;-67
2021/12/16 09:49:31;;;;;;;30.15;16.35;;;;;;;;;;4995202;28;20041;-68
2021/12/16 09:51:59;;;;;;;34.13;16.50;;;;;;;;;;5012838;28;20111;-69
2021/12/16 09:54:27;;;;;;;38.03;17.50;;;;;;;;;;5011002;28;20473;-69
2021/12/16 09:56:54;;;;;;;34.88;18.75;;;;;;;;;;5012451;28;20046;-69
2021/12/16 09:59:21;;;;;;;32.22;17.67;;;;;;;;;;5012481;28;20502;-70
2021/12/16 10:01:48;;;;;;;37.55;18.30;;;;;;;;;;4993481;28;20062;-69
2021/12/16 10:04:15;;;;;;;40.85;19.35;;;;;;;;;;5012365;28;20168;-69
2021/12/16 10:06:42;;;;;;;38.70;18.85;;;;;;;;;;5012510;28;20052;-70
2021/12/16 10:09:10;;;;;;;40.22;18.02;;;;;;;;;;5011686;28;20048;-69
2021/12/16 10:11:37;;;;;;;38.03;18.38;;;;;;;;;;5012458;28;20042;-68
2021/12/16 10:14:18;;;;;;;35.30;18.73;;;;;;;;;;5012102;28;20059;-69
2021/12/16 10:19:31;;;;;;;38.40;17.90;;;;;;;;;;5011774;28;20380;-68
2021/12/16 10:22:16;;;;;;;37.50;17.48;;;;;;;;;;5012061;28;20120;-70
2021/12/16 10:24:42;;;;;;;40.17;17.45;;;;;;;;;;4993791;28;20050;-67
2021/12/16 10:27:08;;;;;;;42.80;17.60;;;;;;;;;;5012343;28;20038;-68
2021/12/16 10:29:35;;;;;;;31.13;16.00;;;;;;;;;;4993727;28;20054;-66
2021/12/16 10:32:01;;;;;;;33.47;16.23;;;;;;;;;;5011561;28;20175;-67
2021/12/16 10:34:27;;;;;;;39.25;17.83;;;;;;;;;;5011848;28;20250;-68
2021/12/16 10:36:54;;;;;;;32.20;15.80;;;;;;;;;;5012211;28;20423;-69
2021/12/16 10:39:22;;;;;;;34.13;16.88;;;;;;;;;;4992111;28;20065;-69
2021/12/16 10:41:56;;;;;;;40.53;18.10;;;;;;;;;;4992410;28;20050;-70
2021/12/16 10:44:23;;;;;;;38.95;16.73;;;;;;;;;;4993648;28;20060;-69
2021/12/16 10:47:00;;;;;;;33.47;16.08;;;;;;;;;;5011259;28;20443;-69
2021/12/16 10:49:28;;;;;;;40.97;17.33;;;;;;;;;;5011128;28;20070;-68
2021/12/16 10:51:57;;;;;;;43.03;17.88;;;;;;;;;;5010661;28;20757;-68
2021/12/16 10:54:24;;;;;;;44.28;17.98;;;;;;;;;;5010955;28;20041;-71
2021/12/16 10:57:10;;;;;;;40.97;18.23;;;;;;;;;;5011471;28;20672;-68
2021/12/16 10:59:48;;;;;;;44.55;17.95;;;;;;;;;;4991133;28;20062;-65
2021/12/16 11:02:14;;;;;;;42.00;17.42;;;;;;;;;;5003731;28;20042;-67
2021/12/16 11:04:45;;;;;;;38.20;18.35;;;;;;;;;;5010922;28;20419;-68
2021/12/16 11:07:20;;;;;;;45.35;17.98;;;;;;;;;;5008798;28;20068;-68
2021/12/16 11:09:52;;;;;;;52.80;20.38;;;;;;;;;;5011285;28;20052;-67
2021/12/16 11:12:24;;;;;;;47.50;19.80;;;;;;;;;;5011343;28;20033;-67
2021/12/16 11:14:58;;;;;;;50.78;18.13;;;;;;;;;;5010308;28;20425;-67
2021/12/16 11:17:26;;;;;;;39.38;18.25;;;;;;;;;;5010685;28;20596;-68
2021/12/16 11:20:01;;;;;;;52.53;19.67;;;;;;;;;;5010904;28;20041;-68
2021/12/16 11:22:32;;;;;;;71.28;18.23;;;;;;;;;;5010652;28;20038;-69
2021/12/16 11:25:10;;;;;;;47.33;17.37;;;;;;;;;;5010748;28;20042;-70
2021/12/16 11:27:36;;;;;;;43.58;16.92;;;;;;;;;;4991378;28;20038;-69
2021/12/16 11:30:23;;;;;;;46.60;19.92;;;;;;;;;;5009141;28;20060;-68
2021/12/16 11:32:50;;;;;;;67.10;18.98;;;;;;;;;;5011092;28;20564;-68
2021/12/16 11:35:23;;;;;;;56.40;19.42;;;;;;;;;;5010958;28;20124;-65
2021/12/16 11:37:49;;;;;;;36.70;17.60;;;;;;;;;;5009888;28;20034;-65
2021/12/16 11:40:15;;;;;;;48.35;19.30;;;;;;;;;;5010567;28;20049;-65
2021/12/16 11:42:41;;;;;;;43.00;19.02;;;;;;;;;;5010698;28;20048;-64
2021/12/16 11:45:08;;;;;;;50.92;18.52;;;;;;;;;;5010021;28;20484;-65
2021/12/16 11:47:35;;;;;;;43.85;18.35;;;;;;;;;;5011138;28;20046;-64
2021/12/16 11:50:04;;;;;;;46.53;18.42;;;;;;;;;;5010710;28;20045;-64
2021/12/16 11:52:35;;;;;;;42.85;18.83;;;;;;;;;;5010337;28;20108;-65
2021/12/16 11:55:06;;;;;;;47.40;17.58;;;;;;;;;;5010919;28;20046;-69
2021/12/16 11:57:34;;;;;;;38.38;18.90;;;;;;;;;;5010357;28;20050;-69
2021/12/16 12:00:02;;;;;;;43.20;17.25;;;;;;;;;;5009468;28;20052;-69
2021/12/16 12:02:33;;;;;;;51.50;18.42;;;;;;;;;;4993492;28;20061;-72
2021/12/16 12:05:32;;;;;;;44.85;18.35;;;;;;;;;;4993363;28;20053;-71
2021/12/16 12:08:00;;;;;;;44.10;16.55;;;;;;;;;;4942199;28;20062;-71
2021/12/16 12:10:40;;;;;;;43.47;17.63;;;;;;;;;;5011209;28;20038;-71
2021/12/16 12:13:07;;;;;;;44.85;17.95;;;;;;;;;;5011479;28;20385;-71
2021/12/16 12:15:34;;;;;;;63.22;18.17;;;;;;;;;;4976688;28;20045;-72
2021/12/16 12:18:01;;;;;;;42.63;18.05;;;;;;;;;;4993283;28;20057;-71
2021/12/16 12:20:30;;;;;;;46.67;18.25;;;;;;;;;;4992969;28;20074;-71
2021/12/16 12:22:56;;;;;;;46.75;17.00;;;;;;;;;;4992738;28;20049;-71
2021/12/16 12:25:22;;;;;;;45.95;16.90;;;;;;;;;;4996444;28;20052;-74
2021/12/16 12:27:48;;;;;;;49.53;17.88;;;;;;;;;;4996569;28;20068;-71
2021/12/16 12:30:14;;;;;;;41.42;17.80;;;;;;;;;;4989034;28;20050;-71
2021/12/16 12:32:43;;;;;;;58.40;18.80;;;;;;;;;;5014394;28;20511;-72
2021/12/16 12:35:15;;;;;;;49.08;17.00;;;;;;;;;;5015029;28;20168;-74
2021/12/16 12:37:42;;;;;;;50.97;17.65;;;;;;;;;;5014546;28;20152;-70
2021/12/16 12:40:38;;;;;;;46.38;17.30;;;;;;;;;;5014857;28;20500;-71
2021/12/16 12:43:05;;;;;;;43.20;17.98;;;;;;;;;;5001263;28;20057;-72
2021/12/16 12:45:34;;;;;;;58.20;17.15;;;;;;;;;;4996644;28;20038;-71
2021/12/16 12:48:01;;;;;;;42.50;17.48;;;;;;;;;;4995521;28;20042;-71
2021/12/16 12:50:31;;;;;;;40.47;16.65;;;;;;;;;;5013362;28;20611;-70
2021/12/16 12:52:59;;;;;;;43.83;16.13;;;;;;;;;;5014439;28;20425;-71
2021/12/16 12:55:31;;;;;;;53.13;18.02;;;;;;;;;;5014575;28;20444;-72
2021/12/16 12:58:09;;;;;;;45.57;16.30;;;;;;;;;;4996758;28;20054;-71
2021/12/16 13:00:40;;;;;;;48.65;16.45;;;;;;;;;;4996552;28;20317;-71
2021/12/16 13:03:09;;;;;;;63.30;16.63;;;;;;;;;;5013038;28;20041;-72
2021/12/16 13:05:36;;;;;;;43.30;16.30;;;;;;;;;;4995585;28;20044;-71
2021/12/16 13:08:06;;;;;;;51.13;16.38;;;;;;;;;;4996665;28;20127;-72
2021/12/16 13:10:47;;;;;;;44.95;16.25;;;;;;;;;;5003028;28;20034;-71
2021/12/16 13:15:53;;;;;;;41.53;15.73;;;;;;;;;;5013925;28;20052;-67
2021/12/16 13:23:52;;;;;;;48.78;17.73;;;;;;;;;;5013517;28;20648;-69
2021/12/16 13:26:36;;;;;;;41.60;16.38;;;;;;;;;;5013405;28;20041;-69
2021/12/16 13:29:14;;;;;;;50.78;16.27;;;;;;;;;;5012752;28;20054;-73
2021/12/16 13:31:53;;;;;;;46.95;18.15;;;;;;;;;;5013316;28;20112;-70
2021/12/16 13:34:26;;;;;;;53.15;17.48;;;;;;;;;;5012044;28;20485;-71
2021/12/16 13:36:56;;;;;;;51.75;17.23;;;;;;;;;;4995101;28;20049;-70
2021/12/16 13:39:24;;;;;;;51.70;17.13;;;;;;;;;;5013437;28;20080;-70
2021/12/16 13:41:56;;;;;;;52.55;18.40;;;;;;;;;;5012912;28;20057;-71
2021/12/16 13:44:46;;;;;;;49.22;17.25;;;;;;;;;;5012896;28;20488;-71
2021/12/16 13:47:44;;;;;;;46.72;16.75;;;;;;;;;;4998886;28;20073;-70
2021/12/16 13:59:45;;;;;;;43.03;15.82;;;;;;;;;;5008347;28;20639;-71
2021/12/16 14:02:03;;;;;;;40.33;15.48;;;;;;;;;;5011636;28;20565;-68
2021/12/16 14:10:16;;;;;;;39.08;15.55;;;;;;;;;;5012426;28;20048;-70
2021/12/16 14:16:14;;;;;;;37.17;15.20;;;;;;;;;;5012750;28;20050;-69
2021/12/16 14:41:06;;;;;;;38.05;14.32;;;;;;;;;;5012146;28;20165;-70
2021/12/16 14:43:41;;;;;;;49.03;14.38;;;;;;;;;;5011192;28;20041;-70
2021/12/16 14:46:09;;;;;;;57.15;14.70;;;;;;;;;;5011225;28;20455;-70
2021/12/16 14:48:36;;;;;;;67.07;14.48;;;;;;;;;;4993113;28;20050;-69
2021/12/16 14:51:04;;;;;;;30.25;13.68;;;;;;;;;;5011396;28;20724;-69
2021/12/16 14:53:33;;;;;;;31.75;14.63;;;;;;;;;;5012222;28;20600;-68
2021/12/16 14:56:02;;;;;;;53.28;14.70;;;;;;;;;;5011338;28;20105;-68
2021/12/16 14:58:28;;;;;;;43.92;15.27;;;;;;;;;;5011358;28;20045;-68
2021/12/16 15:00:57;;;;;;;36.55;15.05;;;;;;;;;;5011910;28;20041;-67
2021/12/16 15:03:27;;;;;;;81.65;16.58;;;;;;;;;;5011728;28;20037;-67
2021/12/16 15:05:55;;;;;;;61.35;14.82;;;;;;;;;;5011576;28;20121;-68
2021/12/16 15:08:35;;;;;;;39.75;13.43;;;;;;;;;;5011852;28;20046;-67
2021/12/16 15:11:03;;;;;;;49.25;14.68;;;;;;;;;;5000529;28;20054;-67
2021/12/16 15:13:48;;;;;;;41.75;15.10;;;;;;;;;;5011399;28;20052;-68
2021/12/16 15:16:54;;;;;;;66.95;15.68;;;;;;;;;;5011126;28;20049;-69
2021/12/16 15:38:33;;;;;;;72.15;15.13;;;;;;;;;;5010779;28;20057;-68
2021/12/16 15:43:51;;;;;;;29.10;14.43;;;;;;;;;;5009903;28;20092;-68
2021/12/16 15:46:18;;;;;;;46.83;15.02;;;;;;;;;;4997245;28;20049;-69
2021/12/16 15:48:47;;;;;;;40.35;15.45;;;;;;;;;;5010768;28;20053;-69
2021/12/16 15:51:13;;;;;;;35.30;13.98;;;;;;;;;;5010672;28;20135;-69
2021/12/16 15:53:40;;;;;;;39.10;14.02;;;;;;;;;;5011537;28;20049;-70
2021/12/16 15:56:14;;;;;;;38.75;15.13;;;;;;;;;;5010718;28;20053;-70
2021/12/16 15:58:45;;;;;;;33.38;14.13;;;;;;;;;;5010310;28;20038;-69
2021/12/16 16:01:15;;;;;;;40.72;13.20;;;;;;;;;;5014019;28;20046;-68
2021/12/16 16:03:41;;;;;;;42.30;14.55;;;;;;;;;;5030754;28;20414;-69
2021/12/16 16:06:09;;;;;;;41.78;14.95;;;;;;;;;;5031898;28;20484;-69
2021/12/16 16:08:38;;;;;;;41.97;13.93;;;;;;;;;;5032233;28;20052;-68
2021/12/16 16:11:06;;;;;;;44.45;13.95;;;;;;;;;;5031897;28;20049;-68
2021/12/16 16:13:41;;;;;;;40.22;13.40;;;;;;;;;;5031946;28;20103;-68
2021/12/16 16:16:08;;;;;;;32.28;12.38;;;;;;;;;;5032102;28;20034;-68
2021/12/16 16:18:37;;;;;;;27.77;12.00;;;;;;;;;;5014241;28;20042;-68
2021/12/16 16:21:03;;;;;;;32.55;12.15;;;;;;;;;;5032268;28;20447;-68
2021/12/16 16:23:30;;;;;;;29.92;12.45;;;;;;;;;;5032540;28;20041;-68
2021/12/16 16:25:56;;;;;;;27.38;11.80;;;;;;;;;;5026161;28;20392;-69
2021/12/16 16:28:25;;;;;;;30.88;11.75;;;;;;;;;;5012723;28;20060;-68
2021/12/16 16:30:52;;;;;;;28.52;12.45;;;;;;;;;;5012858;28;20056;-68
2021/12/16 16:33:20;;;;;;;26.42;11.30;;;;;;;;;;5012321;28;20676;-68
2021/12/16 16:35:47;;;;;;;25.70;11.68;;;;;;;;;;5012740;28;20045;-68
2021/12/16 16:38:18;;;;;;;26.10;10.52;;;;;;;;;;5013094;28;20065;-68
2021/12/16 16:40:46;;;;;;;25.75;11.32;;;;;;;;;;5012012;28;20045;-68
2021/12/16 16:43:17;;;;;;;26.13;11.07;;;;;;;;;;5012415;28;20034;-68
2021/12/16 16:45:44;;;;;;;28.50;11.68;;;;;;;;;;5012378;28;20049;-68
2021/12/16 16:48:27;;;;;;;28.63;11.82;;;;;;;;;;4993995;28;20045;-68
2021/12/16 16:51:13;;;;;;;30.02;13.10;;;;;;;;;;5012123;28;20050;-68
2021/12/16 16:53:59;;;;;;;34.03;12.23;;;;;;;;;;5012544;28;20045;-68
2021/12/16 16:56:49;;;;;;;35.58;12.85;;;;;;;;;;5012167;28;20409;-68
2021/12/16 16:59:18;;;;;;;34.67;14.23;;;;;;;;;;5002801;28;20061;-68
2021/12/16 17:01:45;;;;;;;37.42;13.55;;;;;;;;;;5012898;28;20153;-68
2021/12/16 17:04:14;;;;;;;36.95;14.15;;;;;;;;;;4995074;28;20624;-68
2021/12/16 17:06:46;;;;;;;41.30;14.43;;;;;;;;;;5012909;28;20664;-68
2021/12/16 17:09:12;;;;;;;46.10;16.05;;;;;;;;;;5013198;28;20675;-68
2021/12/16 17:11:50;;;;;;;36.45;16.10;;;;;;;;;;5015676;28;20046;-68
2021/12/16 17:14:19;;;;;;;34.30;14.25;;;;;;;;;;5015586;28;20045;-68
2021/12/16 17:17:20;;;;;;;39.83;16.05;;;;;;;;;;5015255;28;20481;-68
2021/12/16 17:19:52;;;;;;;36.33;14.55;;;;;;;;;;5015017;28;20131;-68
2021/12/16 17:22:29;;;;;;;39.38;15.35;;;;;;;;;;5015398;28;20050;-68
2021/12/16 17:24:55;;;;;;;38.42;15.82;;;;;;;;;;5015035;28;20057;-68
2021/12/16 17:27:22;;;;;;;36.35;15.02;;;;;;;;;;5015538;28;20041;-68
2021/12/16 17:29:59;;;;;;;33.83;15.07;;;;;;;;;;5014598;28;20049;-68
2021/12/16 17:32:27;;;;;;;42.75;15.52;;;;;;;;;;4996933;28;20033;-68
2021/12/16 17:34:56;;;;;;;40.72;15.10;;;;;;;;;;4997666;28;20555;-68
2021/12/16 17:37:25;;;;;;;35.20;14.95;;;;;;;;;;5016128;28;20037;-68
2021/12/16 17:40:00;;;;;;;35.10;14.48;;;;;;;;;;5015636;28;20492;-68
2021/12/16 17:42:31;;;;;;;35.97;15.82;;;;;;;;;;5015771;28;20065;-68
2021/12/16 17:44:59;;;;;;;46.05;15.85;;;;;;;;;;5016238;28;20038;-68
2021/12/16 17:47:30;;;;;;;40.85;17.98;;;;;;;;;;5016038;28;20071;-68
2021/12/16 17:49:57;;;;;;;51.45;19.95;;;;;;;;;;5016066;28;20049;-68
2021/12/16 17:52:28;;;;;;;43.20;18.60;;;;;;;;;;5016431;28;20041;-68
2021/12/16 17:54:57;;;;;;;47.17;18.48;;;;;;;;;;5015806;28;20062;-68
2021/12/16 17:57:25;;;;;;;45.85;18.58;;;;;;;;;;5016200;28;20380;-68
2021/12/16 17:59:52;;;;;;;42.90;17.88;;;;;;;;;;4999158;28;20048;-68
2021/12/16 18:02:19;;;;;;;37.85;17.00;;;;;;;;;;5016453;28;20469;-68
2021/12/16 18:04:48;;;;;;;42.70;17.63;;;;;;;;;;5016910;28;20038;-68